createdAt,value
2023-04-27T00:01:11.188Z,97436.63
2023-04-27T00:04:19.620Z,97438.16
2023-04-27T00:07:23.860Z,97432.91
2023-04-27T00:10:28.003Z,97433.81
2023-04-27T00:13:36.726Z,97431.16
2023-04-27T00:16:42.200Z,97430.75
2023-04-27T00:19:50.238Z,97432.47
2023-04-27T00:23:04.901Z,97425.28
2023-04-27T00:26:10.652Z,97425.56
2023-04-27T00:29:18.734Z,97420.41
2023-04-27T00:32:24.064Z,97423.47
2023-04-27T00:35:35.749Z,97426.25
2023-04-27T00:38:42.626Z,97425.94
2023-04-27T00:41:51.520Z,97431.16
2023-04-27T00:44:55.855Z,97431.25
2023-04-27T00:48:04.016Z,97433.41
2023-04-27T00:51:09.493Z,97431.91
2023-04-27T00:54:48.739Z,97424.78
2023-04-27T00:57:57.303Z,97421.72
2023-04-27T01:01:18.248Z,97429.91
2023-04-27T01:11:36.642Z,97441.88
2023-04-27T01:14:40.751Z,97433.25
2023-04-27T01:17:44.888Z,97433.50
2023-04-27T01:20:49.436Z,97434.88
2023-04-27T01:23:54.750Z,97436.47
2023-04-27T01:27:03.553Z,97432.94
2023-04-27T01:30:08.487Z,97438.22
2023-04-27T01:33:17.004Z,97458.41
2023-04-27T01:36:25.650Z,97455.69
2023-04-27T01:43:07.259Z,97461.31
2023-04-27T01:46:15.327Z,97455.25
2023-04-27T01:49:19.505Z,97457.00
2023-04-27T01:52:53.681Z,97445.44
2023-04-27T01:55:58.241Z,97439.81
2023-04-27T01:59:06.443Z,97439.72
2023-04-27T02:02:17.664Z,97441.94
2023-04-27T02:05:34.780Z,97443.22
2023-04-27T02:12:27.306Z,97430.22
2023-04-27T02:15:32.983Z,97431.59
2023-04-27T02:18:51.285Z,97435.66
2023-04-27T02:22:02.853Z,97442.13
2023-04-27T02:25:13.888Z,97439.06
2023-04-27T02:28:18.276Z,97435.28
2023-04-27T02:31:25.035Z,97441.25
2023-04-27T02:37:53.170Z,97442.78
2023-04-27T02:40:58.593Z,97443.75
2023-04-27T02:44:19.185Z,97442.88
2023-04-27T02:47:23.791Z,97447.63
2023-04-27T02:50:32.350Z,97454.34
2023-04-27T02:53:41.056Z,97455.16
2023-04-27T02:56:59.761Z,97454.97
2023-04-27T03:00:06.541Z,97459.22
2023-04-27T03:03:12.918Z,97458.06
2023-04-27T03:06:23.302Z,97459.44
2023-04-27T03:09:49.164Z,97458.94
2023-04-27T03:19:58.766Z,97465.00
2023-04-27T03:38:34.588Z,97474.19
2023-04-27T03:40:20.361Z,97469.56
2023-04-27T03:44:18.324Z,97472.34
2023-04-27T03:47:41.674Z,97471.00
2023-04-27T03:50:52.927Z,97475.78
2023-04-27T03:57:42.718Z,97475.63
2023-04-27T04:01:27.972Z,97471.94
2023-04-27T04:07:15.158Z,97471.47
2023-04-27T04:13:45.847Z,97485.50
2023-04-27T04:44:35.564Z,97484.00
2023-04-27T04:48:03.669Z,97471.69
2023-04-27T05:09:05.440Z,97474.69
2023-04-27T05:28:31.509Z,97497.44
2023-04-27T05:31:36.814Z,97490.88
2023-04-27T05:34:40.720Z,97492.38
2023-04-27T05:37:47.318Z,97483.66
2023-04-27T05:40:51.603Z,97499.88
2023-04-27T05:44:02.018Z,97494.66
2023-04-27T05:47:07.898Z,97500.84
2023-04-27T05:50:12.260Z,97497.78
2023-04-27T05:53:24.467Z,97505.44
2023-04-27T05:56:34.470Z,97503.25
2023-04-27T05:59:38.763Z,97508.38
2023-04-27T06:02:43.840Z,97513.44
2023-04-27T06:05:48.258Z,97520.44
2023-04-27T06:08:54.970Z,97526.38
2023-04-27T06:11:59.048Z,97535.91
2023-04-27T06:15:03.013Z,97533.97
2023-04-27T06:18:06.823Z,97527.94
2023-04-27T06:21:13.700Z,97530.53
2023-04-27T06:24:18.106Z,97532.59
2023-04-27T06:27:21.964Z,97544.00
2023-04-27T06:30:29.901Z,97536.72
2023-04-27T06:33:33.842Z,97530.34
2023-04-27T06:36:37.829Z,97532.78
2023-04-27T06:39:41.789Z,97531.97
2023-04-27T06:42:45.770Z,97527.25
2023-04-27T06:45:49.563Z,97530.97
2023-04-27T06:48:56.486Z,97531.25
2023-04-27T06:52:00.530Z,97517.78
2023-04-27T06:55:04.614Z,97528.84
2023-04-27T06:58:08.686Z,97524.63
2023-04-27T07:01:12.766Z,97521.94
2023-04-27T07:04:16.866Z,97529.09
2023-04-27T07:07:21.116Z,97527.78
2023-04-27T07:10:25.029Z,97533.66
2023-04-27T07:13:29.174Z,97533.03
2023-04-27T07:16:32.826Z,97537.56
2023-04-27T07:19:38.107Z,97537.03
2023-04-27T07:22:42.934Z,97538.16
2023-04-27T07:25:46.673Z,97529.00
2023-04-27T07:28:50.912Z,97538.50
2023-04-27T07:31:54.865Z,97527.41
2023-04-27T07:34:58.941Z,97514.03
2023-04-27T07:38:02.879Z,97511.72
2023-04-27T07:41:06.860Z,97513.94
2023-04-27T07:44:10.592Z,97509.75
2023-04-27T07:47:14.673Z,97509.63
2023-04-27T07:50:18.495Z,97512.13
2023-04-27T07:53:22.656Z,97516.38
2023-04-27T07:56:26.207Z,97517.22
2023-04-27T07:59:30.266Z,97514.53
2023-04-27T08:02:35.383Z,97514.03
2023-04-27T08:05:39.547Z,97521.97
2023-04-27T08:08:43.859Z,97511.16
2023-04-27T08:11:47.853Z,97519.41
2023-04-27T08:14:51.723Z,97519.66
2023-04-27T08:17:55.664Z,97522.97
2023-04-27T08:20:59.445Z,97520.75
2023-04-27T08:24:03.380Z,97505.06
2023-04-27T08:27:07.117Z,97508.25
2023-04-27T08:30:12.681Z,97505.84
2023-04-27T08:33:18.604Z,97492.34
2023-04-27T08:36:22.691Z,97491.94
2023-04-27T08:39:26.953Z,97498.53
2023-04-27T08:42:30.822Z,97498.38
2023-04-27T08:45:35.017Z,97491.09
2023-04-27T08:48:38.902Z,97504.22
2023-04-27T08:51:42.828Z,97496.69
2023-04-27T08:54:46.736Z,97500.22
2023-04-27T08:57:50.759Z,97494.84
2023-04-27T09:00:54.875Z,97488.78
2023-04-27T09:03:59.129Z,97488.44
2023-04-27T09:07:03.278Z,97489.22
2023-04-27T09:10:07.202Z,97487.97
2023-04-27T09:13:10.924Z,97481.59
2023-04-27T09:16:15.065Z,97482.06
2023-04-27T09:19:19.379Z,97497.34
2023-04-27T09:22:24.892Z,97504.00
2023-04-27T09:25:30.371Z,97494.69
2023-04-27T09:28:34.364Z,97490.44
2023-04-27T09:31:38.206Z,97480.25
2023-04-27T09:34:41.967Z,97485.63
2023-04-27T09:37:46.026Z,97480.91
2023-04-27T09:40:49.676Z,97476.13
2023-04-27T09:43:55.219Z,97474.19
2023-04-27T09:47:01.471Z,97470.81
2023-04-27T09:50:07.039Z,97474.00
2023-04-27T09:53:13.317Z,97482.69
2023-04-27T09:56:17.115Z,97475.25
2023-04-27T09:59:25.755Z,97467.59
2023-04-27T10:02:30.074Z,97472.06
2023-04-27T10:05:34.389Z,97461.78
2023-04-27T10:08:38.181Z,97462.78
2023-04-27T10:11:42.230Z,97454.63
2023-04-27T10:14:46.731Z,97458.81
2023-04-27T10:17:51.018Z,97452.97
2023-04-27T10:20:55.478Z,97449.75
2023-04-27T10:24:00.323Z,97446.84
2023-04-27T10:27:04.226Z,97452.69
2023-04-27T10:30:08.439Z,97445.75
2023-04-27T10:33:12.816Z,97454.03
2023-04-27T10:36:19.412Z,97453.22
2023-04-27T10:39:35.953Z,97449.00
2023-04-27T10:42:48.008Z,97451.63
2023-04-27T10:45:51.927Z,97451.09
2023-04-27T10:48:56.586Z,97451.56
2023-04-27T10:52:00.450Z,97446.22
2023-04-27T10:55:06.319Z,97437.66
2023-04-27T10:58:10.699Z,97435.50
2023-04-27T11:01:27.981Z,97441.53
2023-04-27T11:04:33.777Z,97440.97
2023-04-27T11:07:37.813Z,97429.84
2023-04-27T11:10:44.133Z,97437.03
2023-04-27T11:13:48.137Z,97439.72
2023-04-27T11:16:51.858Z,97440.00
2023-04-27T11:19:56.028Z,97432.03
2023-04-27T11:23:00.242Z,97425.38
2023-04-27T11:26:04.251Z,97420.53
2023-04-27T11:29:08.428Z,97414.72
2023-04-27T11:32:12.126Z,97418.75
2023-04-27T11:35:15.941Z,97419.81
2023-04-27T11:38:20.194Z,97418.84
2023-04-27T11:41:26.111Z,97415.66
2023-04-27T11:44:29.787Z,97410.94
2023-04-27T11:47:33.773Z,97410.38
2023-04-27T11:57:25.354Z,97403.22
2023-04-27T12:04:00.010Z,97407.09
2023-04-27T12:07:13.034Z,97404.50
2023-04-27T12:10:27.001Z,97407.13
2023-04-27T16:26:40.373Z,97272.06
2023-04-27T16:29:44.788Z,97263.69
2023-04-27T16:32:50.064Z,97274.06
2023-04-27T16:35:57.227Z,97266.25
2023-04-27T17:01:52.203Z,97264.16
2023-04-27T17:08:36.191Z,97270.38
2023-04-27T17:15:10.443Z,97279.97
2023-04-27T17:18:25.301Z,97277.03
2023-04-27T18:43:32.479Z,97295.13
2023-04-27T18:46:40.267Z,97295.97
2023-04-27T18:49:44.805Z,97294.91
2023-04-27T18:56:31.996Z,97304.19
2023-04-27T19:02:58.461Z,97299.34
2023-04-27T19:06:02.936Z,97290.22
2023-04-27T19:09:07.072Z,97299.44
2023-04-27T19:12:14.506Z,97303.34
2023-04-27T19:15:18.470Z,97306.69
2023-04-27T19:18:22.567Z,97307.06
2023-04-27T19:21:26.305Z,97309.16
2023-04-27T19:24:30.356Z,97309.59
2023-04-27T19:27:40.236Z,97316.81
2023-04-27T19:30:46.231Z,97315.72
2023-04-27T19:33:55.206Z,97318.94
2023-04-27T19:36:59.524Z,97318.72
2023-04-27T19:40:05.203Z,97326.63
2023-04-27T19:43:14.784Z,97326.63
2023-04-27T19:46:20.411Z,97329.19
2023-04-27T19:49:26.847Z,97337.72
2023-04-27T19:52:30.889Z,97345.25
2023-04-27T19:55:36.790Z,97348.34
2023-04-27T19:58:42.071Z,97346.09
2023-04-27T20:01:46.055Z,97348.63
2023-04-27T20:04:52.763Z,97352.34
2023-04-27T20:08:15.755Z,97355.06
2023-04-27T20:11:19.754Z,97353.91
2023-04-27T20:14:23.698Z,97353.25
2023-04-27T20:17:27.515Z,97358.28
2023-04-27T20:20:31.344Z,97365.31
2023-04-27T20:23:35.147Z,97366.56
2023-04-27T20:26:39.182Z,97379.69
2023-04-27T20:29:42.832Z,97373.28
2023-04-27T20:32:47.031Z,97372.84
2023-04-27T20:35:50.854Z,97378.88
2023-04-27T20:38:55.037Z,97375.09
2023-04-27T20:41:58.825Z,97371.88
2023-04-27T20:45:02.632Z,97377.66
2023-04-27T20:48:06.564Z,97373.28
2023-04-27T20:51:11.800Z,97372.47
2023-04-27T20:54:15.874Z,97370.06
2023-04-27T20:57:20.527Z,97364.47
2023-04-27T21:00:27.278Z,97371.13
2023-04-27T21:03:31.356Z,97364.47
2023-04-27T21:06:35.668Z,97365.56
2023-04-27T21:09:39.779Z,97367.22
2023-04-27T21:12:43.779Z,97363.22
2023-04-27T21:15:47.796Z,97366.91
2023-04-27T21:18:53.018Z,97365.09
2023-04-27T21:21:59.890Z,97357.88
2023-04-27T21:25:03.691Z,97352.81
2023-04-27T21:28:07.961Z,97354.69
2023-04-27T21:31:11.712Z,97344.31
2023-04-27T21:34:15.865Z,97346.47
2023-04-27T21:37:20.476Z,97345.66
2023-04-27T21:40:24.249Z,97339.31
2023-04-27T21:43:28.247Z,97342.75
2023-04-27T21:46:32.239Z,97340.88
2023-04-27T21:49:37.227Z,97345.94
2023-04-27T21:52:41.175Z,97346.22
2023-04-27T21:55:45.348Z,97341.09
2023-04-27T21:58:49.355Z,97337.66
2023-04-27T22:01:53.096Z,97341.31
2023-04-27T22:04:57.239Z,97336.91
2023-04-27T22:08:01.118Z,97342.75
2023-04-27T22:11:05.167Z,97334.00
2023-04-27T22:14:09.306Z,97337.72
2023-04-27T22:17:18.953Z,97345.94
2023-04-27T22:20:22.916Z,97352.34
2023-04-27T22:23:26.903Z,97348.91
2023-04-27T22:26:31.014Z,97361.84
2023-04-27T22:29:35.092Z,97356.31
2023-04-27T22:32:39.092Z,97347.50
2023-04-27T22:35:42.946Z,97351.25
2023-04-27T22:38:47.448Z,97351.78
2023-04-27T22:41:51.472Z,97349.66
2023-04-27T22:44:55.651Z,97355.25
2023-04-27T22:47:59.871Z,97341.69
2023-04-27T22:51:04.882Z,97344.34
2023-04-27T22:54:08.784Z,97347.28
2023-04-27T22:57:12.979Z,97350.19
2023-04-27T23:00:17.126Z,97356.84
2023-04-27T23:03:21.506Z,97346.22
2023-04-27T23:06:26.562Z,97342.47
2023-04-27T23:09:30.487Z,97337.97
2023-04-27T23:12:34.579Z,97337.97
2023-04-27T23:15:40.055Z,97343.28
2023-04-27T23:18:43.978Z,97348.84
2023-04-27T23:21:48.058Z,97339.06
2023-04-27T23:24:51.869Z,97343.28
2023-04-27T23:27:56.142Z,97352.34
2023-04-27T23:31:00.281Z,97349.66
2023-04-27T23:34:04.154Z,97344.09
2023-04-27T23:37:08.017Z,97338.75
2023-04-27T23:40:12.055Z,97346.72
2023-04-27T23:43:15.996Z,97345.69
2023-04-27T23:46:19.871Z,97341.69
2023-04-27T23:49:23.746Z,97352.56
2023-04-27T23:52:27.547Z,97352.31
2023-04-27T23:55:31.842Z,97351.81
2023-04-27T23:58:35.925Z,97348.84
